createdAt,value
2023-03-29T00:00:14.505Z,13.36
2023-03-29T00:03:04.459Z,13.32
2023-03-29T00:05:36.327Z,13.49
2023-03-29T00:08:04.602Z,13.79
2023-03-29T00:10:34.201Z,13.72
2023-03-29T00:13:02.625Z,13.73
2023-03-29T00:15:30.691Z,13.62
2023-03-29T00:17:58.471Z,13.62
2023-03-29T00:20:27.250Z,13.69
2023-03-29T00:22:55.058Z,13.47
2023-03-29T00:25:23.396Z,13.49
2023-03-29T00:27:51.249Z,13.44
2023-03-29T00:30:19.477Z,13.36
2023-03-29T00:32:47.336Z,13.37
2023-03-29T00:35:15.506Z,13.66
2023-03-29T00:37:43.349Z,13.68
2023-03-29T00:40:15.784Z,13.37
2023-03-29T00:42:46.458Z,13.51
2023-03-29T00:45:21.024Z,13.49
2023-03-29T00:47:55.897Z,13.34
2023-03-29T00:50:29.895Z,13.27
2023-03-29T00:52:57.630Z,13.12
2023-03-29T00:55:29.758Z,13.36
2023-03-29T00:57:58.327Z,13.10
2023-03-29T01:00:32.035Z,13.11
2023-03-29T01:03:02.104Z,13.13
2023-03-29T01:05:33.563Z,13.11
2023-03-29T01:08:06.914Z,12.93
2023-03-29T01:10:35.448Z,13.31
2023-03-29T01:13:06.955Z,13.22
2023-03-29T01:15:35.602Z,13.10
2023-03-29T01:18:03.658Z,13.30
2023-03-29T01:20:43.682Z,13.34
2023-03-29T01:23:28.864Z,13.22
2023-03-29T01:26:12.857Z,13.25
2023-03-29T01:28:45.817Z,13.18
2023-03-29T01:31:22.115Z,13.14
2023-03-29T01:33:52.352Z,13.01
2023-03-29T01:36:20.420Z,13.13
2023-03-29T01:39:07.607Z,12.97
2023-03-29T01:41:40.537Z,12.56
2023-03-29T01:44:19.765Z,12.28
2023-03-29T01:46:52.619Z,12.07
2023-03-29T01:49:27.825Z,12.30
2023-03-29T01:52:00.106Z,12.38
2023-03-29T01:54:40.462Z,12.13
2023-03-29T01:57:10.662Z,12.22
2023-03-29T01:59:41.493Z,12.27
2023-03-29T02:02:12.178Z,12.21
2023-03-29T02:04:41.908Z,11.95
2023-03-29T02:07:10.851Z,11.60
2023-03-29T02:09:39.059Z,11.50
2023-03-29T02:12:07.508Z,11.32
2023-03-29T02:14:35.788Z,11.64
2023-03-29T02:17:21.031Z,11.31
2023-03-29T02:19:53.699Z,11.73
2023-03-29T02:22:27.064Z,11.70
2023-03-29T02:24:59.484Z,11.73
2023-03-29T02:27:29.276Z,11.68
2023-03-29T02:29:58.628Z,11.89
2023-03-29T02:32:33.075Z,11.80
2023-03-29T02:35:04.952Z,11.79
2023-03-29T02:37:36.747Z,11.83
2023-03-29T02:40:08.449Z,11.89
2023-03-29T02:42:38.118Z,11.90
2023-03-29T02:45:08.301Z,11.94
2023-03-29T02:47:46.110Z,11.97
2023-03-29T02:50:14.313Z,12.01
2023-03-29T02:52:45.562Z,12.05
2023-03-29T02:55:16.977Z,12.14
2023-03-29T02:57:45.047Z,12.09
2023-03-29T03:00:14.759Z,12.23
2023-03-29T03:02:43.217Z,12.08
2023-03-29T03:05:12.443Z,12.24
2023-03-29T03:07:40.825Z,12.07
2023-03-29T03:10:10.401Z,12.11
2023-03-29T03:12:39.366Z,11.94
2023-03-29T03:15:07.556Z,11.96
2023-03-29T03:17:41.194Z,12.25
2023-03-29T03:20:13.061Z,12.33
2023-03-29T03:22:44.299Z,12.18
2023-03-29T03:25:12.060Z,12.00
2023-03-29T03:27:40.206Z,11.82
2023-03-29T03:30:08.733Z,11.86
2023-03-29T03:33:00.555Z,11.83
2023-03-29T03:35:48.285Z,11.92
2023-03-29T03:38:17.927Z,12.09
2023-03-29T03:40:53.851Z,12.19
2023-03-29T03:43:22.298Z,11.96
2023-03-29T03:45:51.391Z,12.13
2023-03-29T03:48:23.736Z,11.83
2023-03-29T03:51:27.356Z,12.24
2023-03-29T03:53:55.630Z,12.02
2023-03-29T03:56:35.287Z,11.82
2023-03-29T03:59:13.385Z,11.52
2023-03-29T04:01:51.835Z,12.04
2023-03-29T04:04:23.676Z,11.93
2023-03-29T04:07:05.304Z,12.07
2023-03-29T04:09:36.515Z,11.98
2023-03-29T04:12:24.165Z,11.63
2023-03-29T04:14:53.564Z,11.80
2023-03-29T04:17:23.119Z,11.48
2023-03-29T04:19:57.895Z,11.90
2023-03-29T04:22:28.186Z,11.94
2023-03-29T04:24:56.476Z,12.08
2023-03-29T04:27:43.067Z,12.30
2023-03-29T04:30:34.166Z,12.32
2023-03-29T04:33:17.998Z,12.09
2023-03-29T04:35:51.448Z,12.25
2023-03-29T04:38:23.654Z,12.16
2023-03-29T04:40:55.484Z,12.11
2023-03-29T04:43:47.189Z,12.30
2023-03-29T04:46:35.522Z,12.38
2023-03-29T04:49:11.937Z,12.21
2023-03-29T04:51:43.671Z,12.23
2023-03-29T04:54:12.198Z,12.40
2023-03-29T04:57:18.799Z,12.61
2023-03-29T04:59:59.876Z,12.60
2023-03-29T05:03:00.399Z,12.47
2023-03-29T05:05:31.571Z,12.29
2023-03-29T05:08:03.656Z,12.39
2023-03-29T05:10:50.991Z,12.10
2023-03-29T05:13:19.145Z,12.20
2023-03-29T05:15:47.736Z,12.09
2023-03-29T05:18:15.800Z,12.29
2023-03-29T05:20:43.407Z,12.34
2023-03-29T05:23:17.701Z,12.23
2023-03-29T05:26:10.071Z,12.18
2023-03-29T05:28:40.780Z,12.23
2023-03-29T05:31:08.940Z,12.39
2023-03-29T05:33:40.902Z,12.41
2023-03-29T05:36:11.264Z,12.56
2023-03-29T05:38:46.976Z,12.35
2023-03-29T05:41:16.069Z,12.28
2023-03-29T05:44:02.838Z,12.54
2023-03-29T05:46:31.724Z,12.60
2023-03-29T05:49:04.391Z,12.94
2023-03-29T05:51:50.056Z,12.80
2023-03-29T05:54:18.285Z,12.44
2023-03-29T05:56:46.193Z,12.14
2023-03-29T05:59:18.052Z,11.96
2023-03-29T06:01:48.897Z,11.89
2023-03-29T06:04:20.984Z,12.10
2023-03-29T06:07:15.053Z,12.34
2023-03-29T06:09:50.594Z,12.18
2023-03-29T06:12:20.396Z,12.01
2023-03-29T06:15:04.158Z,12.08
2023-03-29T06:17:50.941Z,11.84
2023-03-29T06:20:19.198Z,11.79
2023-03-29T06:22:52.797Z,11.65
2023-03-29T06:25:21.344Z,11.67
2023-03-29T06:27:52.561Z,11.97
2023-03-29T06:30:21.667Z,11.82
2023-03-29T06:32:52.920Z,11.44
2023-03-29T06:35:43.978Z,11.53
2023-03-29T06:38:15.732Z,11.57
2023-03-29T06:41:13.162Z,11.95
2023-03-29T06:43:55.264Z,12.41
2023-03-29T06:46:26.357Z,12.24
2023-03-29T06:48:57.007Z,12.55
2023-03-29T06:51:32.715Z,13.01
2023-03-29T06:54:01.046Z,12.87
2023-03-29T06:56:32.845Z,12.80
2023-03-29T06:59:07.175Z,13.19
2023-03-29T07:01:45.331Z,13.57
2023-03-29T07:04:42.874Z,13.85
2023-03-29T07:07:27.928Z,13.89
2023-03-29T07:10:09.624Z,13.42
2023-03-29T07:12:58.460Z,13.67
2023-03-29T07:15:27.974Z,14.04
2023-03-29T07:18:13.084Z,13.79
2023-03-29T07:20:42.204Z,14.27
2023-03-29T07:23:11.844Z,14.67
2023-03-29T07:25:39.726Z,14.31
2023-03-29T07:28:08.514Z,14.51
2023-03-29T07:30:37.323Z,14.87
2023-03-29T07:33:18.658Z,15.12
2023-03-29T07:35:52.168Z,15.54
2023-03-29T07:38:20.742Z,15.75
2023-03-29T07:40:54.731Z,15.04
2023-03-29T07:43:55.732Z,14.58
2023-03-29T07:46:25.631Z,15.22
2023-03-29T07:48:53.902Z,15.82
2023-03-29T07:51:22.604Z,15.26
2023-03-29T07:53:55.048Z,15.61
2023-03-29T07:56:38.374Z,15.77
2023-03-29T07:59:44.660Z,16.18
2023-03-29T08:02:21.559Z,15.34
2023-03-29T08:04:57.135Z,15.57
2023-03-29T08:07:31.142Z,15.58
2023-03-29T08:10:05.833Z,15.84
2023-03-29T08:12:52.689Z,16.84
2023-03-29T08:15:28.263Z,16.74
2023-03-29T08:17:56.108Z,15.73
2023-03-29T08:20:24.343Z,15.98
2023-03-29T08:22:55.942Z,15.69
2023-03-29T08:25:29.882Z,16.57
2023-03-29T08:27:59.201Z,15.97
2023-03-29T08:30:42.721Z,15.99
2023-03-29T08:33:10.587Z,15.83
2023-03-29T08:35:38.741Z,16.46
2023-03-29T08:38:16.513Z,16.22
2023-03-29T08:40:48.033Z,16.16
2023-03-29T08:43:21.017Z,16.21
2023-03-29T08:46:34.536Z,16.33
2023-03-29T08:49:11.201Z,16.67
2023-03-29T08:51:55.666Z,17.27
2023-03-29T08:54:27.069Z,16.83
2023-03-29T08:57:30.825Z,17.06
2023-03-29T09:00:06.075Z,17.21
2023-03-29T09:02:38.547Z,16.80
2023-03-29T09:05:15.685Z,16.58
2023-03-29T09:07:48.424Z,16.74
2023-03-29T09:10:18.488Z,17.25
2023-03-29T09:12:55.018Z,16.68
2023-03-29T09:15:33.603Z,17.16
2023-03-29T09:18:31.248Z,17.17
2023-03-29T09:21:08.323Z,17.10
2023-03-29T09:23:43.546Z,16.93
2023-03-29T09:26:35.323Z,17.05
2023-03-29T09:29:41.426Z,17.58
2023-03-29T09:32:32.186Z,17.28
2023-03-29T09:35:11.462Z,17.26
2023-03-29T09:37:40.694Z,17.38
2023-03-29T09:40:32.569Z,17.82
2023-03-29T09:43:24.971Z,17.10
2023-03-29T09:45:56.635Z,17.85
2023-03-29T09:48:26.541Z,18.51
2023-03-29T09:50:58.005Z,18.63
2023-03-29T09:53:26.676Z,18.12
2023-03-29T09:56:04.935Z,18.22
2023-03-29T09:58:42.778Z,18.43
2023-03-29T10:01:13.100Z,17.80
2023-03-29T10:03:41.728Z,17.78
2023-03-29T10:06:14.983Z,17.95
2023-03-29T10:08:51.918Z,18.00
2023-03-29T10:11:29.044Z,18.51
2023-03-29T10:14:01.975Z,18.45
2023-03-29T10:16:33.559Z,18.76
2023-03-29T10:19:15.485Z,18.65
2023-03-29T10:21:43.626Z,18.89
2023-03-29T10:24:11.674Z,18.45
2023-03-29T10:26:39.826Z,18.98
2023-03-29T10:29:08.803Z,19.67
2023-03-29T10:31:41.759Z,20.13
2023-03-29T10:34:12.547Z,19.00
2023-03-29T10:36:45.134Z,19.97
2023-03-29T10:39:15.767Z,19.60
2023-03-29T10:41:44.942Z,18.82
2023-03-29T10:44:32.799Z,19.69
2023-03-29T10:47:27.988Z,20.40
2023-03-29T10:49:58.333Z,20.36
2023-03-29T10:52:26.848Z,20.73
2023-03-29T10:54:55.969Z,19.99
2023-03-29T10:57:34.236Z,19.58
2023-03-29T11:00:11.061Z,20.71
2023-03-29T11:02:49.019Z,20.29
2023-03-29T11:05:31.206Z,20.75
2023-03-29T11:08:05.441Z,20.71
2023-03-29T11:10:47.850Z,21.57
2023-03-29T11:13:25.307Z,20.99
2023-03-29T11:16:02.826Z,20.79
2023-03-29T11:18:46.531Z,20.29
2023-03-29T11:21:14.203Z,20.47
2023-03-29T11:23:49.299Z,21.17
2023-03-29T11:26:22.982Z,20.70
2023-03-29T11:29:03.129Z,21.10
2023-03-29T11:31:41.670Z,20.93
2023-03-29T11:34:30.094Z,20.77
2023-03-29T11:37:16.252Z,19.40
2023-03-29T11:40:07.640Z,20.63
2023-03-29T11:42:38.979Z,20.67
2023-03-29T11:45:13.408Z,20.72
2023-03-29T11:47:43.138Z,19.52
2023-03-29T11:50:26.424Z,19.95
2023-03-29T11:53:01.640Z,21.01
2023-03-29T11:55:32.903Z,20.96
2023-03-29T11:58:00.650Z,20.37
2023-03-29T12:00:36.688Z,21.65
2023-03-29T12:03:13.385Z,22.46
2023-03-29T12:05:47.616Z,22.32
2023-03-29T12:08:18.107Z,22.87
2023-03-29T12:10:51.749Z,23.22
2023-03-29T12:13:24.227Z,22.52
2023-03-29T12:16:07.198Z,22.13
2023-03-29T12:18:42.477Z,23.20
2023-03-29T12:21:13.557Z,22.25
2023-03-29T12:23:42.629Z,21.47
2023-03-29T12:26:29.950Z,22.33
2023-03-29T12:29:07.459Z,22.23
2023-03-29T12:31:54.700Z,21.99
2023-03-29T12:34:40.943Z,21.17
2023-03-29T12:37:56.361Z,22.14
2023-03-29T12:41:04.220Z,21.13
2023-03-29T12:43:52.792Z,21.79
2023-03-29T12:46:54.557Z,22.88
2023-03-29T12:49:36.463Z,21.94
2023-03-29T12:52:08.803Z,20.38
2023-03-29T12:54:36.917Z,20.69
2023-03-29T12:57:21.541Z,21.96
2023-03-29T12:59:50.003Z,21.27
2023-03-29T13:02:18.231Z,22.65
2023-03-29T13:04:51.424Z,22.09
2023-03-29T13:07:22.473Z,21.61
2023-03-29T13:09:53.090Z,21.95
2023-03-29T13:12:39.833Z,23.22
2023-03-29T13:15:21.734Z,22.84
2023-03-29T13:18:17.437Z,21.73
2023-03-29T13:21:04.398Z,21.54
2023-03-29T13:23:50.977Z,22.91
2023-03-29T13:26:49.662Z,22.28
2023-03-29T13:29:23.351Z,23.21
2023-03-29T13:31:57.194Z,22.94
2023-03-29T13:34:40.302Z,22.83
2023-03-29T13:37:23.313Z,23.18
2023-03-29T13:39:53.161Z,23.01
2023-03-29T13:42:26.070Z,22.59
2023-03-29T13:45:05.668Z,22.66
2023-03-29T13:47:33.793Z,22.87
2023-03-29T13:50:05.954Z,22.50
2023-03-29T13:52:39.322Z,22.51
2023-03-29T13:55:16.142Z,22.56
2023-03-29T13:57:49.935Z,23.46
2023-03-29T14:00:41.334Z,24.53
2023-03-29T14:03:13.245Z,23.46
2023-03-29T14:05:42.528Z,23.98
2023-03-29T14:08:16.014Z,25.01
2023-03-29T14:10:44.928Z,23.70
2023-03-29T14:13:15.169Z,24.43
2023-03-29T14:15:48.730Z,23.09
2023-03-29T14:18:19.027Z,24.47
2023-03-29T14:20:49.564Z,24.56
2023-03-29T14:23:21.470Z,23.52
2023-03-29T14:25:49.400Z,23.02
2023-03-29T14:28:24.828Z,23.23
2023-03-29T14:30:53.025Z,23.06
2023-03-29T14:33:28.875Z,23.10
2023-03-29T14:35:58.947Z,23.75
2023-03-29T14:38:27.655Z,24.18
2023-03-29T14:40:59.023Z,24.43
2023-03-29T14:43:30.546Z,25.27
2023-03-29T14:45:58.878Z,24.88
2023-03-29T14:48:28.889Z,25.13
2023-03-29T14:50:56.983Z,24.65
2023-03-29T14:53:26.286Z,25.78
2023-03-29T14:55:54.290Z,25.74
2023-03-29T14:58:23.569Z,25.89
2023-03-29T15:00:52.088Z,24.11
2023-03-29T15:03:26.395Z,24.68
2023-03-29T15:05:57.409Z,23.30
2023-03-29T15:08:33.911Z,22.63
2023-03-29T15:11:03.153Z,22.92
2023-03-29T15:13:31.449Z,23.27
2023-03-29T15:16:03.792Z,24.13
2023-03-29T15:18:35.606Z,24.55
2023-03-29T15:21:05.066Z,22.90
2023-03-29T15:23:38.305Z,23.49
2023-03-29T15:26:26.868Z,23.46
2023-03-29T15:29:10.169Z,23.55
2023-03-29T15:31:39.691Z,23.60
2023-03-29T15:34:14.235Z,24.43
2023-03-29T15:36:43.510Z,23.79
2023-03-29T15:39:13.381Z,23.63
2023-03-29T15:41:41.903Z,23.71
2023-03-29T15:44:11.561Z,23.73
2023-03-29T15:46:39.763Z,24.48
2023-03-29T15:49:11.158Z,22.81
2023-03-29T15:51:39.072Z,22.92
2023-03-29T15:54:08.089Z,23.17
2023-03-29T15:56:48.462Z,23.55
2023-03-29T15:59:18.249Z,23.68
2023-03-29T16:01:47.276Z,23.07
2023-03-29T16:04:21.002Z,23.16
2023-03-29T16:06:50.188Z,23.34
2023-03-29T16:09:18.322Z,22.99
2023-03-29T16:11:47.108Z,22.61
2023-03-29T16:14:27.580Z,22.26
2023-03-29T16:16:55.844Z,23.35
2023-03-29T16:19:26.209Z,23.11
2023-03-29T16:21:54.479Z,22.12
2023-03-29T16:24:24.369Z,21.94
2023-03-29T16:26:55.395Z,22.12
2023-03-29T16:29:24.897Z,22.67
2023-03-29T16:31:53.222Z,23.39
2023-03-29T16:34:22.966Z,22.03
2023-03-29T16:36:51.339Z,21.40
2023-03-29T16:39:19.474Z,21.69
2023-03-29T16:41:49.390Z,21.64
2023-03-29T16:44:21.605Z,21.66
2023-03-29T16:46:51.804Z,22.14
2023-03-29T16:49:19.968Z,21.71
2023-03-29T16:51:48.417Z,21.18
2023-03-29T16:54:17.520Z,21.44
2023-03-29T16:56:45.403Z,21.30
2023-03-29T16:59:13.703Z,20.94
2023-03-29T17:01:41.634Z,21.17
2023-03-29T17:04:09.831Z,20.90
2023-03-29T17:06:37.686Z,20.43
2023-03-29T17:09:06.345Z,20.66
2023-03-29T17:11:34.819Z,20.12
2023-03-29T17:14:03.421Z,20.83
2023-03-29T17:16:31.309Z,20.27
2023-03-29T17:19:00.700Z,20.68
2023-03-29T17:21:29.750Z,20.57
2023-03-29T17:23:57.968Z,20.45
2023-03-29T17:26:26.375Z,20.39
2023-03-29T17:28:54.765Z,20.54
2023-03-29T17:31:22.635Z,20.58
2023-03-29T17:33:52.342Z,20.37
2023-03-29T17:36:24.246Z,20.60
2023-03-29T17:38:52.490Z,20.67
2023-03-29T17:41:20.479Z,20.38
2023-03-29T17:43:48.736Z,20.62
2023-03-29T17:46:17.936Z,20.47
2023-03-29T17:48:46.437Z,20.21
2023-03-29T17:51:14.321Z,20.19
2023-03-29T17:53:42.478Z,20.14
2023-03-29T17:56:10.281Z,20.05
2023-03-29T17:58:38.491Z,20.39
2023-03-29T18:01:09.764Z,20.35
2023-03-29T18:03:38.328Z,20.28
2023-03-29T18:06:06.615Z,20.09
2023-03-29T18:08:35.483Z,19.93
2023-03-29T18:11:12.280Z,19.92
2023-03-29T18:13:41.299Z,19.79
2023-03-29T18:16:09.479Z,19.87
2023-03-29T18:18:38.539Z,19.63
2023-03-29T18:21:11.328Z,19.51
2023-03-29T18:23:42.321Z,19.58
2023-03-29T18:26:10.235Z,19.80
2023-03-29T18:28:38.647Z,19.97
2023-03-29T18:31:06.762Z,19.95
2023-03-29T18:33:35.794Z,20.04
2023-03-29T18:36:05.087Z,19.74
2023-03-29T18:38:37.105Z,19.52
2023-03-29T18:41:06.306Z,19.30
2023-03-29T18:43:35.533Z,19.51
2023-03-29T18:46:03.712Z,19.60
2023-03-29T18:48:39.127Z,19.56
2023-03-29T18:51:07.631Z,19.04
2023-03-29T18:53:36.738Z,19.11
2023-03-29T18:56:05.328Z,19.10
2023-03-29T18:58:33.687Z,19.25
2023-03-29T19:01:03.143Z,19.22
2023-03-29T19:03:32.114Z,18.92
2023-03-29T19:06:01.549Z,18.60
2023-03-29T19:08:30.063Z,18.67
2023-03-29T19:11:01.909Z,18.65
2023-03-29T19:13:30.364Z,18.63
2023-03-29T19:15:58.466Z,18.38
2023-03-29T19:18:26.916Z,18.46
2023-03-29T19:20:55.107Z,18.37
2023-03-29T19:23:28.574Z,18.38
2023-03-29T19:25:57.666Z,18.26
2023-03-29T19:28:27.506Z,18.24
2023-03-29T19:30:56.086Z,18.38
2023-03-29T19:33:24.288Z,18.50
2023-03-29T19:35:52.514Z,18.48
2023-03-29T19:38:20.872Z,18.49
2023-03-29T19:40:49.682Z,18.14
2023-03-29T19:43:21.096Z,18.26
2023-03-29T19:45:50.281Z,18.16
2023-03-29T19:48:23.099Z,18.08
2023-03-29T19:50:52.208Z,18.27
2023-03-29T19:53:21.479Z,18.16
2023-03-29T19:55:50.567Z,18.29
2023-03-29T19:58:19.893Z,18.38
2023-03-29T20:00:54.008Z,18.09
2023-03-29T20:03:25.678Z,18.38
2023-03-29T20:05:57.572Z,18.33
2023-03-29T20:08:27.766Z,18.34
2023-03-29T20:11:01.008Z,18.40
2023-03-29T20:13:38.227Z,18.42
2023-03-29T20:16:09.567Z,18.25
2023-03-29T20:18:42.414Z,18.34
2023-03-29T20:21:11.809Z,18.26
2023-03-29T20:23:40.818Z,18.16
2023-03-29T20:26:09.303Z,18.17
2023-03-29T20:28:40.385Z,18.33
2023-03-29T20:31:11.020Z,18.29
2023-03-29T20:33:39.612Z,18.27
2023-03-29T20:36:08.755Z,18.27
2023-03-29T20:38:39.112Z,18.19
2023-03-29T20:41:09.564Z,18.16
2023-03-29T20:43:37.959Z,18.28
2023-03-29T20:46:14.544Z,18.26
2023-03-29T20:49:03.365Z,17.97
2023-03-29T20:51:32.235Z,18.01
2023-03-29T20:54:05.005Z,18.10
2023-03-29T20:56:34.133Z,18.07
2023-03-29T20:59:04.206Z,18.07
2023-03-29T21:01:32.896Z,17.99
2023-03-29T21:04:01.268Z,17.96
2023-03-29T21:06:31.104Z,18.18
2023-03-29T21:09:00.264Z,18.06
2023-03-29T21:11:28.008Z,18.00
2023-03-29T21:13:56.230Z,17.99
2023-03-29T21:16:25.645Z,18.03
2023-03-29T21:18:53.769Z,18.21
2023-03-29T21:21:23.170Z,17.91
2023-03-29T21:23:51.559Z,17.89
2023-03-29T21:26:19.332Z,17.83
2023-03-29T21:28:48.908Z,17.89
2023-03-29T21:31:16.687Z,17.75
2023-03-29T21:33:44.788Z,17.63
2023-03-29T21:36:12.524Z,17.70
2023-03-29T21:38:40.690Z,17.85
2023-03-29T21:41:12.269Z,17.67
2023-03-29T21:43:40.715Z,17.68
2023-03-29T21:46:08.520Z,17.69
2023-03-29T21:48:37.117Z,17.70
2023-03-29T21:51:06.640Z,17.55
2023-03-29T21:53:35.320Z,17.63
2023-03-29T21:56:03.259Z,17.53
2023-03-29T21:58:31.808Z,17.65
2023-03-29T22:00:59.822Z,17.55
2023-03-29T22:03:28.447Z,17.59
2023-03-29T22:06:01.383Z,17.59
2023-03-29T22:08:30.088Z,17.60
2023-03-29T22:10:57.991Z,17.61
2023-03-29T22:13:27.687Z,17.32
2023-03-29T22:16:01.213Z,17.29
2023-03-29T22:18:47.005Z,17.41
2023-03-29T22:21:17.704Z,17.49
2023-03-29T22:23:50.292Z,17.62
2023-03-29T22:26:19.997Z,17.50
2023-03-29T22:28:48.012Z,17.42
2023-03-29T22:31:17.174Z,17.41
2023-03-29T22:33:45.685Z,17.63
2023-03-29T22:36:15.232Z,17.47
2023-03-29T22:38:43.841Z,17.51
2023-03-29T22:41:11.982Z,17.43
2023-03-29T22:43:40.840Z,17.45
2023-03-29T22:46:09.425Z,17.43
2023-03-29T22:48:37.558Z,17.41
2023-03-29T22:51:06.064Z,17.41
2023-03-29T22:53:34.450Z,17.44
2023-03-29T22:56:02.438Z,17.29
2023-03-29T22:58:30.893Z,17.13
2023-03-29T23:00:59.023Z,17.22
2023-03-29T23:03:27.113Z,17.08
2023-03-29T23:05:56.532Z,16.97
2023-03-29T23:08:25.599Z,16.95
2023-03-29T23:10:53.437Z,17.00
2023-03-29T23:13:26.047Z,17.03
2023-03-29T23:15:55.268Z,16.96
2023-03-29T23:18:23.876Z,16.71
2023-03-29T23:20:54.886Z,16.83
2023-03-29T23:23:24.304Z,16.76
2023-03-29T23:25:52.554Z,16.71
2023-03-29T23:28:23.833Z,16.91
2023-03-29T23:30:58.128Z,16.50
2023-03-29T23:33:26.549Z,16.74
2023-03-29T23:35:54.728Z,16.82
2023-03-29T23:38:23.070Z,16.75
2023-03-29T23:40:54.643Z,16.79
2023-03-29T23:43:22.692Z,16.52
2023-03-29T23:45:55.834Z,16.57
2023-03-29T23:48:24.827Z,16.49
2023-03-29T23:50:52.569Z,16.61
2023-03-29T23:53:21.177Z,16.61
2023-03-29T23:55:49.425Z,16.63
2023-03-29T23:58:17.720Z,16.56
